DNO284 LGKC-LGSA
Flight info
| Callsign | DNO284 |
|---|---|
| Flight time | 0h 28m |
| Altitude | 15000 |
| Route | SOKRI |
| Aircraft | A319/M-SDFGR/C |
Departure
| Time | 2026-04-28 16:10 |
|---|---|
| Airport | Kithira Airport (LGKC) |
Arrival
| Time | 2026-04-28 16:38 |
|---|---|
| Airport | Chania International Airport (LGSA) |
| Time | Latitude | Longitude | Altitude | Speed | Heading |
|---|---|---|---|---|---|
| 2026-04-28 15:55 | 36.27573 | 23.01589 | 1026 ft | 0 kts | 208° |
| 2026-04-28 16:04 | 36.27569 | 23.01586 | 1026 ft | 2 kts | 208° |
| 2026-04-28 16:04 | 36.27548 | 23.01573 | 1026 ft | 4 kts | 202° |
| 2026-04-28 16:04 | 36.27516 | 23.01584 | 1025 ft | 6 kts | 158° |
| 2026-04-28 16:05 | 36.27472 | 23.01606 | 1026 ft | 8 kts | 158° |
| 2026-04-28 16:05 | 36.27413 | 23.01640 | 1026 ft | 11 kts | 153° |
| 2026-04-28 16:05 | 36.27330 | 23.01631 | 1026 ft | 14 kts | 204° |
| 2026-04-28 16:05 | 36.27229 | 23.01573 | 1026 ft | 16 kts | 205° |
| 2026-04-28 16:06 | 36.27117 | 23.01507 | 1024 ft | 20 kts | 205° |
| 2026-04-28 16:06 | 36.27014 | 23.01446 | 1024 ft | 17 kts | 206° |
| 2026-04-28 16:06 | 36.26907 | 23.01378 | 1022 ft | 9 kts | 219° |
| 2026-04-28 16:06 | 36.26862 | 23.01310 | 1026 ft | 7 kts | 212° |
| 2026-04-28 16:07 | 36.26831 | 23.01333 | 1026 ft | 5 kts | 66° |
| 2026-04-28 16:07 | 36.26848 | 23.01345 | 1026 ft | 0 kts | 27° |
| 2026-04-28 16:09 | 36.26850 | 23.01346 | 1026 ft | 3 kts | 27° |
| 2026-04-28 16:09 | 36.27112 | 23.01504 | 1025 ft | 89 kts | 26° |
| 2026-04-28 16:10 | 36.28802 | 23.02546 | 2104 ft | 142 kts | 25° |
| 2026-04-28 16:10 | 36.29665 | 23.03105 | 2938 ft | 140 kts | 29° |
| 2026-04-28 16:10 | 36.30942 | 23.05341 | 3657 ft | 181 kts | 65° |
| 2026-04-28 16:11 | 36.31398 | 23.08784 | 4483 ft | 233 kts | 92° |
| 2026-04-28 16:11 | 36.30602 | 23.13045 | 5791 ft | 271 kts | 103° |
| 2026-04-28 16:12 | 36.28319 | 23.16905 | 7606 ft | 289 kts | 136° |
| 2026-04-28 16:12 | 36.26990 | 23.18777 | 8510 ft | 291 kts | 117° |
| 2026-04-28 16:13 | 36.26237 | 23.23611 | 10278 ft | 292 kts | 88° |
| 2026-04-28 16:13 | 36.26197 | 23.26186 | 10646 ft | 315 kts | 88° |
| 2026-04-28 16:13 | 36.26106 | 23.31909 | 11635 ft | 343 kts | 89° |
| 2026-04-28 16:14 | 36.25987 | 23.37909 | 13073 ft | 354 kts | 89° |
| 2026-04-28 16:14 | 36.25467 | 23.44056 | 14398 ft | 368 kts | 105° |
| 2026-04-28 16:15 | 36.22955 | 23.49644 | 15044 ft | 377 kts | 131° |
| 2026-04-28 16:15 | 36.20994 | 23.51851 | 15081 ft | 385 kts | 143° |
| 2026-04-28 16:15 | 36.18882 | 23.53841 | 15085 ft | 387 kts | 143° |
| 2026-04-28 16:16 | 36.14628 | 23.57929 | 15087 ft | 387 kts | 142° |
| 2026-04-28 16:16 | 36.12510 | 23.59987 | 15082 ft | 387 kts | 142° |
| 2026-04-28 16:17 | 36.08272 | 23.64103 | 15087 ft | 387 kts | 142° |
| 2026-04-28 16:17 | 36.06144 | 23.66154 | 15083 ft | 387 kts | 142° |
| 2026-04-28 16:17 | 36.04016 | 23.68194 | 15083 ft | 387 kts | 142° |
| 2026-04-28 16:17 | 36.01893 | 23.70228 | 15081 ft | 383 kts | 142° |
| 2026-04-28 16:18 | 35.99876 | 23.72294 | 15083 ft | 380 kts | 140° |
| 2026-04-28 16:18 | 35.97852 | 23.74361 | 15063 ft | 372 kts | 140° |
| 2026-04-28 16:18 | 35.95925 | 23.76410 | 14930 ft | 359 kts | 139° |
| 2026-04-28 16:18 | 35.94050 | 23.78366 | 14807 ft | 347 kts | 141° |
| 2026-04-28 16:19 | 35.92175 | 23.80165 | 14686 ft | 335 kts | 143° |
| 2026-04-28 16:19 | 35.90330 | 23.81850 | 14569 ft | 325 kts | 144° |
| 2026-04-28 16:19 | 35.88525 | 23.83470 | 14403 ft | 318 kts | 144° |
| 2026-04-28 16:19 | 35.86749 | 23.85066 | 14142 ft | 315 kts | 144° |
| 2026-04-28 16:20 | 35.84993 | 23.86657 | 13850 ft | 313 kts | 144° |
| 2026-04-28 16:20 | 35.83250 | 23.88248 | 13537 ft | 311 kts | 143° |
| 2026-04-28 16:20 | 35.81545 | 23.89813 | 13224 ft | 309 kts | 143° |
| 2026-04-28 16:20 | 35.79835 | 23.91407 | 12888 ft | 307 kts | 140° |
| 2026-04-28 16:21 | 35.78412 | 23.93344 | 12571 ft | 304 kts | 122° |
| 2026-04-28 16:21 | 35.77504 | 23.95666 | 12259 ft | 300 kts | 105° |
| 2026-04-28 16:21 | 35.77155 | 23.98165 | 11955 ft | 294 kts | 88° |
| 2026-04-28 16:21 | 35.77360 | 24.00637 | 11654 ft | 288 kts | 72° |
| 2026-04-28 16:22 | 35.78063 | 24.02918 | 11359 ft | 283 kts | 62° |
| 2026-04-28 16:22 | 35.78835 | 24.05144 | 11061 ft | 283 kts | 66° |
| 2026-04-28 16:22 | 35.79469 | 24.07427 | 10783 ft | 282 kts | 70° |
| 2026-04-28 16:22 | 35.79962 | 24.09735 | 10474 ft | 282 kts | 74° |
| 2026-04-28 16:23 | 35.80326 | 24.12101 | 10194 ft | 281 kts | 78° |
| 2026-04-28 16:23 | 35.80566 | 24.14498 | 9772 ft | 285 kts | 82° |
| 2026-04-28 16:23 | 35.80669 | 24.16955 | 9324 ft | 289 kts | 86° |
| 2026-04-28 16:23 | 35.80627 | 24.19422 | 9042 ft | 288 kts | 90° |
| 2026-04-28 16:24 | 35.80449 | 24.21845 | 9015 ft | 278 kts | 94° |
| 2026-04-28 16:24 | 35.80150 | 24.24158 | 9022 ft | 271 kts | 97° |
| 2026-04-28 16:24 | 35.79725 | 24.26416 | 8970 ft | 271 kts | 102° |
| 2026-04-28 16:24 | 35.79146 | 24.28623 | 8839 ft | 271 kts | 107° |
| 2026-04-28 16:25 | 35.78453 | 24.30782 | 8710 ft | 271 kts | 110° |
| 2026-04-28 16:25 | 35.77670 | 24.32862 | 8586 ft | 272 kts | 113° |
| 2026-04-28 16:25 | 35.76775 | 24.34912 | 8459 ft | 272 kts | 117° |
| 2026-04-28 16:25 | 35.75776 | 24.36893 | 8333 ft | 273 kts | 121° |
| 2026-04-28 16:26 | 35.74669 | 24.38791 | 8223 ft | 273 kts | 125° |
| 2026-04-28 16:26 | 35.73456 | 24.40594 | 8097 ft | 274 kts | 129° |
| 2026-04-28 16:26 | 35.72140 | 24.42291 | 7973 ft | 274 kts | 133° |
| 2026-04-28 16:26 | 35.71218 | 24.43356 | 7891 ft | 275 kts | 136° |
| 2026-04-28 16:27 | 35.69260 | 24.45332 | 7732 ft | 275 kts | 141° |
| 2026-04-28 16:27 | 35.67691 | 24.46673 | 7609 ft | 275 kts | 145° |
| 2026-04-28 16:27 | 35.64232 | 24.48611 | 7360 ft | 277 kts | 174° |
| 2026-04-28 16:28 | 35.62335 | 24.48378 | 7238 ft | 275 kts | 200° |
| 2026-04-28 16:28 | 35.61199 | 24.47714 | 7155 ft | 272 kts | 217° |
| 2026-04-28 16:28 | 35.59580 | 24.45498 | 6994 ft | 254 kts | 248° |
| 2026-04-28 16:28 | 35.59188 | 24.44182 | 6911 ft | 242 kts | 262° |
| 2026-04-28 16:29 | 35.59444 | 24.40397 | 6612 ft | 214 kts | 289° |
| 2026-04-28 16:29 | 35.57730 | 24.37260 | 6450 ft | 222 kts | 185° |
| 2026-04-28 16:30 | 35.56310 | 24.37695 | 6340 ft | 208 kts | 142° |
| 2026-04-28 16:30 | 35.55256 | 24.38869 | 6054 ft | 203 kts | 131° |
| 2026-04-28 16:30 | 35.54247 | 24.40071 | 5769 ft | 201 kts | 133° |
| 2026-04-28 16:30 | 35.53538 | 24.40806 | 5601 ft | 202 kts | 141° |
| 2026-04-28 16:31 | 35.52283 | 24.41559 | 5366 ft | 201 kts | 162° |
| 2026-04-28 16:31 | 35.50922 | 24.41818 | 5167 ft | 195 kts | 178° |
| 2026-04-28 16:31 | 35.49587 | 24.41753 | 4949 ft | 190 kts | 187° |
| 2026-04-28 16:31 | 35.48289 | 24.41499 | 4683 ft | 188 kts | 194° |
| 2026-04-28 16:32 | 35.47129 | 24.40822 | 4400 ft | 183 kts | 221° |
| 2026-04-28 16:32 | 35.45906 | 24.38314 | 3927 ft | 167 kts | 264° |
| 2026-04-28 16:32 | 35.45923 | 24.36950 | 3786 ft | 155 kts | 285° |
| 2026-04-28 16:33 | 35.46254 | 24.35753 | 3619 ft | 144 kts | 296° |
| 2026-04-28 16:33 | 35.46505 | 24.35001 | 3431 ft | 144 kts | 296° |
| 2026-04-28 16:33 | 35.47009 | 24.33481 | 3030 ft | 142 kts | 296° |
| 2026-04-28 16:33 | 35.47357 | 24.32421 | 2893 ft | 126 kts | 296° |
| 2026-04-28 16:34 | 35.47692 | 24.31413 | 2726 ft | 131 kts | 296° |
| 2026-04-28 16:34 | 35.48042 | 24.30368 | 2593 ft | 134 kts | 297° |
| 2026-04-28 16:34 | 35.48398 | 24.29322 | 2502 ft | 135 kts | 297° |
| 2026-04-28 16:34 | 35.48773 | 24.28240 | 2366 ft | 140 kts | 297° |
| 2026-04-28 16:35 | 35.49160 | 24.27131 | 2229 ft | 142 kts | 296° |
| 2026-04-28 16:35 | 35.49514 | 24.25999 | 2072 ft | 142 kts | 293° |
| 2026-04-28 16:35 | 35.49863 | 24.24890 | 1886 ft | 137 kts | 294° |
| 2026-04-28 16:35 | 35.50202 | 24.23797 | 1647 ft | 137 kts | 292° |
| 2026-04-28 16:36 | 35.50517 | 24.22723 | 1445 ft | 129 kts | 292° |
| 2026-04-28 16:36 | 35.50871 | 24.21745 | 1263 ft | 129 kts | 298° |
| 2026-04-28 16:36 | 35.51275 | 24.20722 | 1171 ft | 135 kts | 294° |
| 2026-04-28 16:36 | 35.51615 | 24.19638 | 1032 ft | 140 kts | 291° |
| 2026-04-28 16:37 | 35.51998 | 24.18526 | 837 ft | 145 kts | 295° |
| 2026-04-28 16:37 | 35.52382 | 24.17379 | 635 ft | 143 kts | 292° |
| 2026-04-28 16:37 | 35.52734 | 24.16304 | 483 ft | 124 kts | 292° |
| 2026-04-28 16:38 | 35.53221 | 24.14829 | 455 ft | 78 kts | 292° |
| 2026-04-28 16:38 | 35.53413 | 24.14233 | 446 ft | 68 kts | 291° |
| 2026-04-28 16:38 | 35.53529 | 24.13880 | 442 ft | 28 kts | 292° |
| 2026-04-28 16:38 | 35.53606 | 24.13643 | 437 ft | 26 kts | 291° |
| 2026-04-28 16:39 | 35.53676 | 24.13460 | 424 ft | 20 kts | 327° |
| 2026-04-28 16:39 | 35.53762 | 24.13479 | 428 ft | 8 kts | 24° |
| 2026-04-28 16:39 | 35.53776 | 24.13487 | 432 ft | 0 kts | 27° |
| 2026-04-28 16:40 | 35.53786 | 24.13493 | 432 ft | 2 kts | 27° |
| 2026-04-28 16:40 | 35.53804 | 24.13509 | 426 ft | 4 kts | 39° |
| 2026-04-28 16:41 | 35.53817 | 24.13539 | 429 ft | 5 kts | 76° |
| 2026-04-28 16:41 | 35.53809 | 24.13578 | 430 ft | 5 kts | 109° |
| 2026-04-28 16:41 | 35.53802 | 24.13601 | 430 ft | 0 kts | 110° |
| 2026-04-28 16:41 | 35.53802 | 24.13602 | 430 ft | 0 kts | 110° |
| 2026-04-28 16:42 | 35.53799 | 24.13612 | 434 ft | 2 kts | 110° |
| 2026-04-28 16:42 | 35.53790 | 24.13643 | 424 ft | 5 kts | 111° |
| 2026-04-28 16:42 | 35.53772 | 24.13698 | 432 ft | 9 kts | 111° |
| 2026-04-28 16:42 | 35.53744 | 24.13782 | 431 ft | 13 kts | 112° |
| 2026-04-28 16:43 | 35.53706 | 24.13897 | 429 ft | 16 kts | 112° |
| 2026-04-28 16:43 | 35.53741 | 24.13991 | 436 ft | 15 kts | 18° |
| 2026-04-28 16:43 | 35.53775 | 24.14070 | 436 ft | 12 kts | 119° |
| 2026-04-28 16:43 | 35.53772 | 24.14141 | 430 ft | 7 kts | 32° |
| 2026-04-28 16:44 | 35.53775 | 24.14144 | 431 ft | 0 kts | 39° |
| 2026-04-28 16:44 | 35.53776 | 24.14145 | 432 ft | 0 kts | 41° |